sensor_id;sensor_type;location;lat;lon;timestamp;temperature;humidity
5419;DHT22;2732;52.092;11.556;2022-11-15T00:01:00;5.90;99.90
5419;DHT22;2732;52.092;11.556;2022-11-15T00:06:04;5.90;99.90
5419;DHT22;2732;52.092;11.556;2022-11-15T00:11:05;5.90;99.90
5419;DHT22;2732;52.092;11.556;2022-11-15T00:16:06;5.80;99.90
5419;DHT22;2732;52.092;11.556;2022-11-15T00:21:10;5.80;99.90
5419;DHT22;2732;52.092;11.556;2022-11-15T00:26:14;5.80;99.90
5419;DHT22;2732;52.092;11.556;2022-11-15T00:31:15;5.80;99.90
5419;DHT22;2732;52.092;11.556;2022-11-15T00:36:16;5.80;99.90
5419;DHT22;2732;52.092;11.556;2022-11-15T00:41:16;5.80;99.90
5419;DHT22;2732;52.092;11.556;2022-11-15T00:46:17;5.80;99.90
5419;DHT22;2732;52.092;11.556;2022-11-15T00:51:18;5.80;99.90
5419;DHT22;2732;52.092;11.556;2022-11-15T00:56:18;5.80;99.90
5419;DHT22;2732;52.092;11.556;2022-11-15T01:01:21;5.80;99.90
5419;DHT22;2732;52.092;11.556;2022-11-15T01:06:21;5.80;99.90
5419;DHT22;2732;52.092;11.556;2022-11-15T01:11:22;5.80;99.90
5419;DHT22;2732;52.092;11.556;2022-11-15T01:16:23;5.80;99.90
5419;DHT22;2732;52.092;11.556;2022-11-15T01:21:23;5.80;99.90
5419;DHT22;2732;52.092;11.556;2022-11-15T01:26:24;5.80;99.90
5419;DHT22;2732;52.092;11.556;2022-11-15T01:31:25;5.80;99.90
5419;DHT22;2732;52.092;11.556;2022-11-15T01:36:26;5.80;99.90
5419;DHT22;2732;52.092;11.556;2022-11-15T01:41:32;5.70;99.90
5419;DHT22;2732;52.092;11.556;2022-11-15T01:46:35;5.80;99.90
5419;DHT22;2732;52.092;11.556;2022-11-15T01:51:36;5.80;99.90
5419;DHT22;2732;52.092;11.556;2022-11-15T01:56:43;5.80;99.90
5419;DHT22;2732;52.092;11.556;2022-11-15T02:01:47;5.80;99.90
5419;DHT22;2732;52.092;11.556;2022-11-15T02:06:48;5.80;99.90
5419;DHT22;2732;52.092;11.556;2022-11-15T02:11:49;5.70;99.90
5419;DHT22;2732;52.092;11.556;2022-11-15T02:17:01;5.70;99.90
5419;DHT22;2732;52.092;11.556;2022-11-15T02:33:43;5.70;99.90
5419;DHT22;2732;52.092;11.556;2022-11-15T02:38:59;5.60;99.90
5419;DHT22;2732;52.092;11.556;2022-11-15T02:44:16;5.60;99.90
5419;DHT22;2732;52.092;11.556;2022-11-15T02:49:29;5.60;99.90
5419;DHT22;2732;52.092;11.556;2022-11-15T02:54:33;5.60;99.90
5419;DHT22;2732;52.092;11.556;2022-11-15T03:00:06;5.60;99.90
5419;DHT22;2732;52.092;11.556;2022-11-15T03:16:44;5.60;99.90
5419;DHT22;2732;52.092;11.556;2022-11-15T03:22:01;5.50;99.90
5419;DHT22;2732;52.092;11.556;2022-11-15T03:27:06;5.60;99.90
5419;DHT22;2732;52.092;11.556;2022-11-15T03:32:13;5.60;99.90
5419;DHT22;2732;52.092;11.556;2022-11-15T03:48:50;5.50;99.90
5419;DHT22;2732;52.092;11.556;2022-11-15T03:53:53;5.50;99.90
5419;DHT22;2732;52.092;11.556;2022-11-15T03:58:53;5.50;99.90
5419;DHT22;2732;52.092;11.556;2022-11-15T04:03:54;5.50;99.90
5419;DHT22;2732;52.092;11.556;2022-11-15T04:08:55;5.50;99.90
5419;DHT22;2732;52.092;11.556;2022-11-15T04:13:55;5.50;99.90
5419;DHT22;2732;52.092;11.556;2022-11-15T04:18:56;5.50;99.90
5419;DHT22;2732;52.092;11.556;2022-11-15T04:24:15;5.50;99.90
5419;DHT22;2732;52.092;11.556;2022-11-15T04:29:16;5.50;99.90
5419;DHT22;2732;52.092;11.556;2022-11-15T04:34:34;5.50;99.90
5419;DHT22;2732;52.092;11.556;2022-11-15T04:39:35;5.40;99.90
5419;DHT22;2732;52.092;11.556;2022-11-15T04:44:36;5.40;99.90
5419;DHT22;2732;52.092;11.556;2022-11-15T04:49:36;5.50;99.90
5419;DHT22;2732;52.092;11.556;2022-11-15T04:54:37;5.40;99.90
5419;DHT22;2732;52.092;11.556;2022-11-15T04:59:38;5.40;99.90
5419;DHT22;2732;52.092;11.556;2022-11-15T05:04:38;5.40;99.90
5419;DHT22;2732;52.092;11.556;2022-11-15T05:09:39;5.40;99.90
5419;DHT22;2732;52.092;11.556;2022-11-15T05:14:40;5.40;99.90
5419;DHT22;2732;52.092;11.556;2022-11-15T05:19:40;5.40;99.90
5419;DHT22;2732;52.092;11.556;2022-11-15T05:24:41;5.40;99.90
5419;DHT22;2732;52.092;11.556;2022-11-15T05:29:42;5.30;99.90
5419;DHT22;2732;52.092;11.556;2022-11-15T05:34:43;5.30;99.90
5419;DHT22;2732;52.092;11.556;2022-11-15T05:39:44;5.30;99.90
5419;DHT22;2732;52.092;11.556;2022-11-15T05:44:47;5.30;99.90
5419;DHT22;2732;52.092;11.556;2022-11-15T05:49:50;5.40;99.90
5419;DHT22;2732;52.092;11.556;2022-11-15T05:54:52;5.30;99.90
5419;DHT22;2732;52.092;11.556;2022-11-15T05:59:53;5.30;99.90
5419;DHT22;2732;52.092;11.556;2022-11-15T06:04:54;5.30;99.90
5419;DHT22;2732;52.092;11.556;2022-11-15T06:09:55;5.40;99.90
5419;DHT22;2732;52.092;11.556;2022-11-15T06:14:56;5.30;99.90
5419;DHT22;2732;52.092;11.556;2022-11-15T06:19:56;5.30;99.90
5419;DHT22;2732;52.092;11.556;2022-11-15T06:24:57;5.30;99.90
5419;DHT22;2732;52.092;11.556;2022-11-15T06:29:57;5.40;99.90
5419;DHT22;2732;52.092;11.556;2022-11-15T06:34:58;5.40;99.90
5419;DHT22;2732;52.092;11.556;2022-11-15T06:39:59;5.40;99.90
5419;DHT22;2732;52.092;11.556;2022-11-15T06:44:59;5.40;99.90
5419;DHT22;2732;52.092;11.556;2022-11-15T06:50:00;5.50;99.90
5419;DHT22;2732;52.092;11.556;2022-11-15T06:55:02;5.50;99.90
5419;DHT22;2732;52.092;11.556;2022-11-15T07:00:04;5.50;99.90
5419;DHT22;2732;52.092;11.556;2022-11-15T07:05:06;5.60;99.90
5419;DHT22;2732;52.092;11.556;2022-11-15T07:10:07;5.60;99.90
5419;DHT22;2732;52.092;11.556;2022-11-15T07:15:09;5.60;99.90
5419;DHT22;2732;52.092;11.556;2022-11-15T07:20:11;5.70;99.90
5419;DHT22;2732;52.092;11.556;2022-11-15T07:25:12;5.70;99.90
5419;DHT22;2732;52.092;11.556;2022-11-15T07:30:13;5.70;99.90
5419;DHT22;2732;52.092;11.556;2022-11-15T07:35:13;5.70;99.90
5419;DHT22;2732;52.092;11.556;2022-11-15T07:40:14;5.70;99.90
5419;DHT22;2732;52.092;11.556;2022-11-15T07:45:15;5.80;99.90
5419;DHT22;2732;52.092;11.556;2022-11-15T07:50:16;5.80;99.90
5419;DHT22;2732;52.092;11.556;2022-11-15T07:55:17;5.90;99.90
5419;DHT22;2732;52.092;11.556;2022-11-15T08:00:18;5.90;99.90
5419;DHT22;2732;52.092;11.556;2022-11-15T08:05:19;5.90;99.90
5419;DHT22;2732;52.092;11.556;2022-11-15T08:10:20;6.00;99.90
5419;DHT22;2732;52.092;11.556;2022-11-15T08:15:21;6.00;99.90
5419;DHT22;2732;52.092;11.556;2022-11-15T08:20:22;6.10;99.90
5419;DHT22;2732;52.092;11.556;2022-11-15T08:25:24;6.20;99.90
5419;DHT22;2732;52.092;11.556;2022-11-15T08:30:29;6.20;99.90
5419;DHT22;2732;52.092;11.556;2022-11-15T08:35:30;6.30;99.90
5419;DHT22;2732;52.092;11.556;2022-11-15T08:40:31;6.40;99.90
5419;DHT22;2732;52.092;11.556;2022-11-15T08:45:34;6.40;99.90
5419;DHT22;2732;52.092;11.556;2022-11-15T08:50:35;6.50;99.90
5419;DHT22;2732;52.092;11.556;2022-11-15T08:55:36;6.60;99.90
5419;DHT22;2732;52.092;11.556;2022-11-15T09:00:38;6.70;99.90
5419;DHT22;2732;52.092;11.556;2022-11-15T09:05:38;6.90;99.90
5419;DHT22;2732;52.092;11.556;2022-11-15T09:10:39;7.00;99.90
5419;DHT22;2732;52.092;11.556;2022-11-15T09:15:40;7.10;99.90
5419;DHT22;2732;52.092;11.556;2022-11-15T09:20:40;7.20;99.90
5419;DHT22;2732;52.092;11.556;2022-11-15T09:25:41;7.30;99.90
5419;DHT22;2732;52.092;11.556;2022-11-15T09:30:42;7.50;99.90
5419;DHT22;2732;52.092;11.556;2022-11-15T09:35:42;7.60;99.90
5419;DHT22;2732;52.092;11.556;2022-11-15T09:40:43;7.80;99.90
5419;DHT22;2732;52.092;11.556;2022-11-15T09:45:55;7.90;99.90
5419;DHT22;2732;52.092;11.556;2022-11-15T09:51:04;8.10;99.90
5419;DHT22;2732;52.092;11.556;2022-11-15T09:56:22;8.30;99.90
5419;DHT22;2732;52.092;11.556;2022-11-15T10:06:52;8.70;99.90
5419;DHT22;2732;52.092;11.556;2022-11-15T10:11:56;8.90;99.90
5419;DHT22;2732;52.092;11.556;2022-11-15T10:27:32;9.30;99.90
5419;DHT22;2732;52.092;11.556;2022-11-15T10:32:35;9.50;99.90
5419;DHT22;2732;52.092;11.556;2022-11-15T10:37:36;9.60;99.90
5419;DHT22;2732;52.092;11.556;2022-11-15T10:42:37;9.80;99.90
5419;DHT22;2732;52.092;11.556;2022-11-15T10:47:39;10.00;99.90
5419;DHT22;2732;52.092;11.556;2022-11-15T10:52:45;10.10;99.90
5419;DHT22;2732;52.092;11.556;2022-11-15T10:57:53;10.20;99.90
5419;DHT22;2732;52.092;11.556;2022-11-15T11:08:08;10.40;99.90
5419;DHT22;2732;52.092;11.556;2022-11-15T11:13:35;10.40;99.90
5419;DHT22;2732;52.092;11.556;2022-11-15T11:24:17;10.60;99.90
5419;DHT22;2732;52.092;11.556;2022-11-15T11:29:33;10.60;99.90
5419;DHT22;2732;52.092;11.556;2022-11-15T11:40:32;10.70;99.90
5419;DHT22;2732;52.092;11.556;2022-11-15T11:45:56;10.80;99.90
5419;DHT22;2732;52.092;11.556;2022-11-15T11:51:26;10.80;99.90
5419;DHT22;2732;52.092;11.556;2022-11-15T11:56:33;10.90;99.90
5419;DHT22;2732;52.092;11.556;2022-11-15T12:01:39;10.90;99.90
5419;DHT22;2732;52.092;11.556;2022-11-15T12:07:01;11.00;99.90
5419;DHT22;2732;52.092;11.556;2022-11-15T12:12:31;11.00;99.90
5419;DHT22;2732;52.092;11.556;2022-11-15T12:17:33;11.10;99.90
5419;DHT22;2732;52.092;11.556;2022-11-15T12:28:24;11.20;99.90
5419;DHT22;2732;52.092;11.556;2022-11-15T12:33:58;11.20;99.90
5419;DHT22;2732;52.092;11.556;2022-11-15T12:39:01;11.30;99.90
5419;DHT22;2732;52.092;11.556;2022-11-15T12:44:04;11.30;99.90
5419;DHT22;2732;52.092;11.556;2022-11-15T12:59:53;11.40;99.90
5419;DHT22;2732;52.092;11.556;2022-11-15T13:15:58;11.60;99.90
5419;DHT22;2732;52.092;11.556;2022-11-15T13:21:00;11.60;99.90
5419;DHT22;2732;52.092;11.556;2022-11-15T13:26:15;11.70;99.90
5419;DHT22;2732;52.092;11.556;2022-11-15T13:36:36;11.80;99.90
5419;DHT22;2732;52.092;11.556;2022-11-15T13:41:46;11.80;99.90
5419;DHT22;2732;52.092;11.556;2022-11-15T13:46:48;11.90;99.90
5419;DHT22;2732;52.092;11.556;2022-11-15T13:51:51;12.00;99.90
5419;DHT22;2732;52.092;11.556;2022-11-15T13:56:58;12.00;99.90
5419;DHT22;2732;52.092;11.556;2022-11-15T14:02:16;12.00;99.90
5419;DHT22;2732;52.092;11.556;2022-11-15T14:07:36;12.10;99.90
5419;DHT22;2732;52.092;11.556;2022-11-15T14:12:37;12.20;99.90
5419;DHT22;2732;52.092;11.556;2022-11-15T14:17:38;12.30;99.90
5419;DHT22;2732;52.092;11.556;2022-11-15T14:22:54;12.30;99.90
5419;DHT22;2732;52.092;11.556;2022-11-15T14:33:30;12.40;99.90
5419;DHT22;2732;52.092;11.556;2022-11-15T14:38:33;12.40;99.90
5419;DHT22;2732;52.092;11.556;2022-11-15T14:43:34;12.40;99.90
5419;DHT22;2732;52.092;11.556;2022-11-15T14:48:35;12.40;99.90
5419;DHT22;2732;52.092;11.556;2022-11-15T14:53:36;12.30;99.90
5419;DHT22;2732;52.092;11.556;2022-11-15T14:58:37;12.30;99.90
5419;DHT22;2732;52.092;11.556;2022-11-15T15:03:38;12.20;99.90
5419;DHT22;2732;52.092;11.556;2022-11-15T15:08:40;12.10;99.90
5419;DHT22;2732;52.092;11.556;2022-11-15T15:13:41;12.00;99.90
5419;DHT22;2732;52.092;11.556;2022-11-15T15:18:41;11.90;99.90
5419;DHT22;2732;52.092;11.556;2022-11-15T15:23:42;11.80;99.90
5419;DHT22;2732;52.092;11.556;2022-11-15T15:28:43;11.70;99.90
5419;DHT22;2732;52.092;11.556;2022-11-15T15:33:44;11.60;99.90
5419;DHT22;2732;52.092;11.556;2022-11-15T15:38:45;11.60;99.90
5419;DHT22;2732;52.092;11.556;2022-11-15T15:43:47;11.50;99.90
5419;DHT22;2732;52.092;11.556;2022-11-15T15:48:47;11.40;99.90
5419;DHT22;2732;52.092;11.556;2022-11-15T15:53:48;11.30;99.90
5419;DHT22;2732;52.092;11.556;2022-11-15T15:58:51;11.30;99.90
5419;DHT22;2732;52.092;11.556;2022-11-15T16:03:52;11.20;99.90
5419;DHT22;2732;52.092;11.556;2022-11-15T16:08:53;11.20;99.90
5419;DHT22;2732;52.092;11.556;2022-11-15T16:13:54;11.10;99.90
5419;DHT22;2732;52.092;11.556;2022-11-15T16:18:54;11.00;99.90
5419;DHT22;2732;52.092;11.556;2022-11-15T16:23:55;11.00;99.90
5419;DHT22;2732;52.092;11.556;2022-11-15T16:28:56;10.90;99.90
5419;DHT22;2732;52.092;11.556;2022-11-15T16:33:57;10.80;99.90
5419;DHT22;2732;52.092;11.556;2022-11-15T16:38:59;10.70;99.90
5419;DHT22;2732;52.092;11.556;2022-11-15T16:44:00;10.50;99.90
5419;DHT22;2732;52.092;11.556;2022-11-15T16:49:01;10.30;99.90
5419;DHT22;2732;52.092;11.556;2022-11-15T16:54:01;10.20;99.90
5419;DHT22;2732;52.092;11.556;2022-11-15T16:59:02;10.10;99.90
5419;DHT22;2732;52.092;11.556;2022-11-15T17:04:03;10.00;99.90
5419;DHT22;2732;52.092;11.556;2022-11-15T17:09:13;9.90;99.90
5419;DHT22;2732;52.092;11.556;2022-11-15T17:14:16;9.80;99.90
5419;DHT22;2732;52.092;11.556;2022-11-15T17:19:19;9.70;99.90
5419;DHT22;2732;52.092;11.556;2022-11-15T17:24:20;9.60;99.90
5419;DHT22;2732;52.092;11.556;2022-11-15T17:29:21;9.50;99.90
5419;DHT22;2732;52.092;11.556;2022-11-15T17:34:22;9.40;99.90
5419;DHT22;2732;52.092;11.556;2022-11-15T17:39:23;9.30;99.90
5419;DHT22;2732;52.092;11.556;2022-11-15T17:44:24;9.30;99.90
5419;DHT22;2732;52.092;11.556;2022-11-15T17:49:25;9.20;99.90
5419;DHT22;2732;52.092;11.556;2022-11-15T17:54:25;9.20;99.90
5419;DHT22;2732;52.092;11.556;2022-11-15T17:59:26;9.10;99.90
5419;DHT22;2732;52.092;11.556;2022-11-15T18:04:27;9.10;99.90
5419;DHT22;2732;52.092;11.556;2022-11-15T18:09:28;9.10;99.90
5419;DHT22;2732;52.092;11.556;2022-11-15T18:14:28;9.00;99.90
5419;DHT22;2732;52.092;11.556;2022-11-15T18:19:29;9.00;99.90
5419;DHT22;2732;52.092;11.556;2022-11-15T18:24:32;9.10;99.90
5419;DHT22;2732;52.092;11.556;2022-11-15T18:29:44;9.00;99.90
5419;DHT22;2732;52.092;11.556;2022-11-15T18:34:44;9.00;99.90
5419;DHT22;2732;52.092;11.556;2022-11-15T18:39:45;9.00;99.90
5419;DHT22;2732;52.092;11.556;2022-11-15T18:44:46;9.00;99.90
5419;DHT22;2732;52.092;11.556;2022-11-15T18:49:47;9.00;99.90
5419;DHT22;2732;52.092;11.556;2022-11-15T18:54:48;9.00;99.90
5419;DHT22;2732;52.092;11.556;2022-11-15T18:59:48;9.00;99.90
5419;DHT22;2732;52.092;11.556;2022-11-15T19:04:49;9.00;99.90
5419;DHT22;2732;52.092;11.556;2022-11-15T19:09:50;9.00;99.90
5419;DHT22;2732;52.092;11.556;2022-11-15T19:14:50;9.00;99.90
5419;DHT22;2732;52.092;11.556;2022-11-15T19:19:51;8.90;99.90
5419;DHT22;2732;52.092;11.556;2022-11-15T19:24:52;9.00;99.90
5419;DHT22;2732;52.092;11.556;2022-11-15T19:29:52;8.90;99.90
5419;DHT22;2732;52.092;11.556;2022-11-15T19:34:53;8.90;99.90
5419;DHT22;2732;52.092;11.556;2022-11-15T19:39:53;8.80;99.90
5419;DHT22;2732;52.092;11.556;2022-11-15T19:44:54;8.90;99.90
5419;DHT22;2732;52.092;11.556;2022-11-15T19:49:55;8.90;99.90
5419;DHT22;2732;52.092;11.556;2022-11-15T19:54:55;8.90;99.90
5419;DHT22;2732;52.092;11.556;2022-11-15T19:59:56;8.90;99.90
5419;DHT22;2732;52.092;11.556;2022-11-15T20:04:57;8.80;99.90
5419;DHT22;2732;52.092;11.556;2022-11-15T20:09:57;8.90;99.90
5419;DHT22;2732;52.092;11.556;2022-11-15T20:14:59;8.90;99.90
5419;DHT22;2732;52.092;11.556;2022-11-15T20:20:00;8.90;99.90
5419;DHT22;2732;52.092;11.556;2022-11-15T20:25:00;8.80;99.90
5419;DHT22;2732;52.092;11.556;2022-11-15T20:30:02;8.80;99.90
5419;DHT22;2732;52.092;11.556;2022-11-15T20:35:04;8.80;99.90
5419;DHT22;2732;52.092;11.556;2022-11-15T20:40:05;8.80;99.90
5419;DHT22;2732;52.092;11.556;2022-11-15T20:45:06;8.80;99.90
5419;DHT22;2732;52.092;11.556;2022-11-15T20:50:07;8.80;99.90
5419;DHT22;2732;52.092;11.556;2022-11-15T20:55:08;8.80;99.90
5419;DHT22;2732;52.092;11.556;2022-11-15T21:00:09;8.80;99.90
5419;DHT22;2732;52.092;11.556;2022-11-15T21:05:11;8.80;99.90
5419;DHT22;2732;52.092;11.556;2022-11-15T21:10:11;8.80;99.90
5419;DHT22;2732;52.092;11.556;2022-11-15T21:15:32;8.70;99.90
5419;DHT22;2732;52.092;11.556;2022-11-15T21:20:33;8.70;99.90
5419;DHT22;2732;52.092;11.556;2022-11-15T21:25:34;8.70;99.90
5419;DHT22;2732;52.092;11.556;2022-11-15T21:30:34;8.70;99.90
5419;DHT22;2732;52.092;11.556;2022-11-15T21:35:35;8.70;99.90
5419;DHT22;2732;52.092;11.556;2022-11-15T21:40:36;8.70;99.90
5419;DHT22;2732;52.092;11.556;2022-11-15T21:45:37;8.70;99.90
5419;DHT22;2732;52.092;11.556;2022-11-15T21:50:38;8.60;99.90
5419;DHT22;2732;52.092;11.556;2022-11-15T21:55:39;8.60;99.90
5419;DHT22;2732;52.092;11.556;2022-11-15T22:00:39;8.60;99.90
5419;DHT22;2732;52.092;11.556;2022-11-15T22:05:59;8.60;99.90
5419;DHT22;2732;52.092;11.556;2022-11-15T22:11:00;8.50;99.90
5419;DHT22;2732;52.092;11.556;2022-11-15T22:16:01;8.50;99.90
5419;DHT22;2732;52.092;11.556;2022-11-15T22:21:13;8.40;99.90
5419;DHT22;2732;52.092;11.556;2022-11-15T22:26:16;8.40;99.90
5419;DHT22;2732;52.092;11.556;2022-11-15T22:31:18;8.40;99.90
5419;DHT22;2732;52.092;11.556;2022-11-15T22:36:18;8.40;99.90
5419;DHT22;2732;52.092;11.556;2022-11-15T22:41:19;8.40;99.90
5419;DHT22;2732;52.092;11.556;2022-11-15T22:46:20;8.40;99.90
5419;DHT22;2732;52.092;11.556;2022-11-15T22:51:21;8.40;99.90
5419;DHT22;2732;52.092;11.556;2022-11-15T22:56:21;8.40;99.90
5419;DHT22;2732;52.092;11.556;2022-11-15T23:01:22;8.40;99.90
5419;DHT22;2732;52.092;11.556;2022-11-15T23:06:23;8.40;99.90
5419;DHT22;2732;52.092;11.556;2022-11-15T23:11:24;8.40;99.90
5419;DHT22;2732;52.092;11.556;2022-11-15T23:16:43;8.40;99.90
5419;DHT22;2732;52.092;11.556;2022-11-15T23:21:45;8.30;99.90
5419;DHT22;2732;52.092;11.556;2022-11-15T23:27:06;8.30;99.90
5419;DHT22;2732;52.092;11.556;2022-11-15T23:32:07;8.30;99.90
5419;DHT22;2732;52.092;11.556;2022-11-15T23:37:27;8.30;99.90
5419;DHT22;2732;52.092;11.556;2022-11-15T23:42:27;8.30;99.90
5419;DHT22;2732;52.092;11.556;2022-11-15T23:47:28;8.20;99.90
5419;DHT22;2732;52.092;11.556;2022-11-15T23:52:29;8.20;99.90
5419;DHT22;2732;52.092;11.556;2022-11-15T23:57:29;8.10;99.90
